sensor_id;sensor_type;location;lat;lon;timestamp;pressure;altitude;pressure_sealevel;temperature;humidity
25084;BME280;13075;55.682;37.564;2023-04-27T00:01:14;98752.59;;;18.15;86.13
25084;BME280;13075;55.682;37.564;2023-04-27T00:03:39;98753.09;;;18.01;85.06
25084;BME280;13075;55.682;37.564;2023-04-27T00:06:06;98754.50;;;18.09;86.74
25084;BME280;13075;55.682;37.564;2023-04-27T00:08:32;98752.59;;;18.25;89.35
25084;BME280;13075;55.682;37.564;2023-04-27T00:10:58;98761.03;;;18.28;88.01
25084;BME280;13075;55.682;37.564;2023-04-27T00:13:23;98762.91;;;18.33;86.18
25084;BME280;13075;55.682;37.564;2023-04-27T00:15:49;98764.28;;;18.35;86.27
25084;BME280;13075;55.682;37.564;2023-04-27T00:18:14;98773.16;;;18.05;88.18
25084;BME280;13075;55.682;37.564;2023-04-27T00:20:40;98770.78;;;18.24;86.75
25084;BME280;13075;55.682;37.564;2023-04-27T00:23:05;98770.78;;;18.29;86.92
25084;BME280;13075;55.682;37.564;2023-04-27T00:25:31;98764.00;;;18.32;86.16
25084;BME280;13075;55.682;37.564;2023-04-27T00:27:56;98761.31;;;18.42;84.97
25084;BME280;13075;55.682;37.564;2023-04-27T00:30:23;98772.13;;;18.32;86.71
25084;BME280;13075;55.682;37.564;2023-04-27T00:32:48;98775.38;;;18.19;87.87
25084;BME280;13075;55.682;37.564;2023-04-27T00:35:15;98764.53;;;18.29;87.00
25084;BME280;13075;55.682;37.564;2023-04-27T00:37:40;98768.84;;;18.25;89.75
25084;BME280;13075;55.682;37.564;2023-04-27T00:40:06;98763.88;;;17.76;90.17
25084;BME280;13075;55.682;37.564;2023-04-27T00:42:32;98762.63;;;18.14;89.91
25084;BME280;13075;55.682;37.564;2023-04-27T00:44:58;98757.72;;;17.96;89.43
25084;BME280;13075;55.682;37.564;2023-04-27T00:47:24;98761.00;;;18.18;90.63
25084;BME280;13075;55.682;37.564;2023-04-27T00:49:49;98755.88;;;18.12;91.88
25084;BME280;13075;55.682;37.564;2023-04-27T00:52:15;98753.38;;;17.95;90.01
25084;BME280;13075;55.682;37.564;2023-04-27T00:54:41;98758.31;;;18.33;89.86
25084;BME280;13075;55.682;37.564;2023-04-27T00:57:06;98761.06;;;18.58;85.49
25084;BME280;13075;55.682;37.564;2023-04-27T00:59:33;98770.84;;;18.70;84.42
25084;BME280;13075;55.682;37.564;2023-04-27T01:01:58;98764.59;;;18.79;83.25
25084;BME280;13075;55.682;37.564;2023-04-27T01:04:24;98768.66;;;18.87;81.79
25084;BME280;13075;55.682;37.564;2023-04-27T01:06:51;98765.69;;;18.88;79.99
25084;BME280;13075;55.682;37.564;2023-04-27T01:09:16;98766.75;;;18.77;80.33
25084;BME280;13075;55.682;37.564;2023-04-27T01:11:44;98767.84;;;18.86;79.33
25084;BME280;13075;55.682;37.564;2023-04-27T01:14:10;98769.22;;;18.89;81.07
25084;BME280;13075;55.682;37.564;2023-04-27T01:16:35;98765.41;;;18.85;81.73
25084;BME280;13075;55.682;37.564;2023-04-27T01:19:01;98766.75;;;18.87;81.49
25084;BME280;13075;55.682;37.564;2023-04-27T01:21:27;98765.13;;;18.66;82.13
25084;BME280;13075;55.682;37.564;2023-04-27T01:23:52;98766.75;;;18.72;81.11
25084;BME280;13075;55.682;37.564;2023-04-27T01:26:18;98763.00;;;18.58;83.44
25084;BME280;13075;55.682;37.564;2023-04-27T01:28:43;98762.41;;;18.51;84.80
25084;BME280;13075;55.682;37.564;2023-04-27T01:31:10;98760.53;;;18.61;85.21
25084;BME280;13075;55.682;37.564;2023-04-27T01:33:36;98755.66;;;18.63;84.41
25084;BME280;13075;55.682;37.564;2023-04-27T01:36:01;98758.31;;;18.43;84.17
25084;BME280;13075;55.682;37.564;2023-04-27T01:38:27;98760.78;;;18.45;85.04
25084;BME280;13075;55.682;37.564;2023-04-27T01:40:52;98757.50;;;18.38;85.80
25084;BME280;13075;55.682;37.564;2023-04-27T01:43:19;98757.50;;;18.33;85.71
25084;BME280;13075;55.682;37.564;2023-04-27T01:45:45;98758.84;;;18.15;87.02
25084;BME280;13075;55.682;37.564;2023-04-27T01:48:12;98752.88;;;18.08;86.46
25084;BME280;13075;55.682;37.564;2023-04-27T01:50:38;98753.41;;;18.10;89.08
25084;BME280;13075;55.682;37.564;2023-04-27T01:53:05;98759.13;;;18.14;87.69
25084;BME280;13075;55.682;37.564;2023-04-27T01:55:30;98753.72;;;18.19;89.16
25084;BME280;13075;55.682;37.564;2023-04-27T01:57:56;98763.69;;;17.98;89.40
25084;BME280;13075;55.682;37.564;2023-04-27T02:00:22;98772.38;;;18.15;89.88
25084;BME280;13075;55.682;37.564;2023-04-27T02:02:47;98774.00;;;18.16;90.58
25084;BME280;13075;55.682;37.564;2023-04-27T02:05:15;98779.13;;;18.18;89.10
25084;BME280;13075;55.682;37.564;2023-04-27T02:07:41;98779.91;;;17.98;91.71
25084;BME280;13075;55.682;37.564;2023-04-27T02:10:06;98778.28;;;17.97;89.78
25084;BME280;13075;55.682;37.564;2023-04-27T02:12:32;98778.59;;;18.16;88.19
25084;BME280;13075;55.682;37.564;2023-04-27T02:14:58;98783.47;;;18.14;87.87
25084;BME280;13075;55.682;37.564;2023-04-27T02:17:23;98788.03;;;17.93;87.89
25084;BME280;13075;55.682;37.564;2023-04-27T02:19:49;98791.06;;;18.12;89.81
25084;BME280;13075;55.682;37.564;2023-04-27T02:22:14;98786.41;;;18.02;90.16
25084;BME280;13075;55.682;37.564;2023-04-27T02:24:40;98791.88;;;18.22;89.55
25084;BME280;13075;55.682;37.564;2023-04-27T02:27:06;98791.88;;;18.27;88.40
25084;BME280;13075;55.682;37.564;2023-04-27T02:29:31;98797.88;;;18.29;88.32
25084;BME280;13075;55.682;37.564;2023-04-27T02:31:57;98798.38;;;18.21;89.41
25084;BME280;13075;55.682;37.564;2023-04-27T02:34:22;98799.47;;;18.25;88.07
25084;BME280;13075;55.682;37.564;2023-04-27T02:36:48;98802.63;;;17.92;87.61
25084;BME280;13075;55.682;37.564;2023-04-27T02:39:13;98793.75;;;18.07;88.98
25084;BME280;13075;55.682;37.564;2023-04-27T02:41:39;98790.25;;;18.16;89.84
25084;BME280;13075;55.682;37.564;2023-04-27T02:44:04;98794.63;;;18.32;87.41
25084;BME280;13075;55.682;37.564;2023-04-27T02:46:30;98804.63;;;18.32;87.68
25084;BME280;13075;55.682;37.564;2023-04-27T02:48:56;98803.47;;;18.08;91.34
25084;BME280;13075;55.682;37.564;2023-04-27T02:51:22;98810.03;;;18.17;92.58
25084;BME280;13075;55.682;37.564;2023-04-27T02:53:48;98811.06;;;18.11;92.13
25084;BME280;13075;55.682;37.564;2023-04-27T02:56:13;98817.03;;;18.18;92.60
25084;BME280;13075;55.682;37.564;2023-04-27T02:58:38;98819.50;;;18.19;91.35
25084;BME280;13075;55.682;37.564;2023-04-27T03:01:04;98819.50;;;18.24;91.42
25084;BME280;13075;55.682;37.564;2023-04-27T03:03:30;98822.75;;;18.26;94.61
25084;BME280;13075;55.682;37.564;2023-04-27T03:05:55;98821.06;;;18.00;95.44
25084;BME280;13075;55.682;37.564;2023-04-27T03:08:21;98824.56;;;17.95;98.18
25084;BME280;13075;55.682;37.564;2023-04-27T03:10:46;98824.63;;;18.21;93.26
25084;BME280;13075;55.682;37.564;2023-04-27T03:13:12;98831.44;;;18.28;92.20
25084;BME280;13075;55.682;37.564;2023-04-27T03:15:38;98835.50;;;18.31;93.55
25084;BME280;13075;55.682;37.564;2023-04-27T03:18:04;98837.50;;;19.06;88.55
25084;BME280;13075;55.682;37.564;2023-04-27T03:20:29;98841.22;;;19.70;81.96
25084;BME280;13075;55.682;37.564;2023-04-27T03:22:56;98837.31;;;19.97;78.05
25084;BME280;13075;55.682;37.564;2023-04-27T03:25:21;98845.13;;;20.08;76.30
25084;BME280;13075;55.682;37.564;2023-04-27T03:27:47;98851.16;;;20.05;78.55
25084;BME280;13075;55.682;37.564;2023-04-27T03:30:12;98853.34;;;20.52;75.54
25084;BME280;13075;55.682;37.564;2023-04-27T03:32:38;98850.38;;;21.26;71.47
25084;BME280;13075;55.682;37.564;2023-04-27T03:35:03;98853.06;;;21.31;68.39
25084;BME280;13075;55.682;37.564;2023-04-27T03:37:29;98849.34;;;21.74;66.71
25084;BME280;13075;55.682;37.564;2023-04-27T03:39:55;98855.09;;;20.77;71.81
25084;BME280;13075;55.682;37.564;2023-04-27T03:42:21;98848.03;;;20.32;74.47
25084;BME280;13075;55.682;37.564;2023-04-27T03:44:47;98852.53;;;20.57;74.80
25084;BME280;13075;55.682;37.564;2023-04-27T03:47:12;98856.56;;;20.10;79.67
25084;BME280;13075;55.682;37.564;2023-04-27T03:49:38;98850.53;;;20.28;77.51
25084;BME280;13075;55.682;37.564;2023-04-27T03:52:05;98855.75;;;20.05;77.26
25084;BME280;13075;55.682;37.564;2023-04-27T03:54:33;98860.09;;;20.60;75.47
25084;BME280;13075;55.682;37.564;2023-04-27T03:56:58;98854.84;;;20.73;74.60
25084;BME280;13075;55.682;37.564;2023-04-27T03:59:27;98860.56;;;20.28;74.96
25084;BME280;13075;55.682;37.564;2023-04-27T04:01:53;98857.56;;;20.29;76.73
25084;BME280;13075;55.682;37.564;2023-04-27T04:04:18;98861.63;;;20.32;74.72
25084;BME280;13075;55.682;37.564;2023-04-27T04:06:44;98863.50;;;20.36;75.09
25084;BME280;13075;55.682;37.564;2023-04-27T04:09:11;98867.78;;;20.47;77.57
25084;BME280;13075;55.682;37.564;2023-04-27T04:11:38;98867.72;;;19.99;78.58
25084;BME280;13075;55.682;37.564;2023-04-27T04:14:05;98869.53;;;20.18;76.44
25084;BME280;13075;55.682;37.564;2023-04-27T04:16:31;98867.50;;;20.54;78.25
25084;BME280;13075;55.682;37.564;2023-04-27T04:18:57;98870.69;;;20.61;75.51
25084;BME280;13075;55.682;37.564;2023-04-27T04:21:22;98880.78;;;20.56;74.65
25084;BME280;13075;55.682;37.564;2023-04-27T04:23:48;98874.91;;;20.82;73.04
25084;BME280;13075;55.682;37.564;2023-04-27T04:26:14;98871.63;;;20.41;72.46
25084;BME280;13075;55.682;37.564;2023-04-27T04:28:39;98871.88;;;20.89;71.21
25084;BME280;13075;55.682;37.564;2023-04-27T04:31:04;98883.25;;;20.91;65.41
25084;BME280;13075;55.682;37.564;2023-04-27T04:33:32;98887.19;;;22.00;66.29
25084;BME280;13075;55.682;37.564;2023-04-27T04:35:58;98887.38;;;22.08;63.41
25084;BME280;13075;55.682;37.564;2023-04-27T04:38:23;98879.59;;;22.20;63.05
25084;BME280;13075;55.682;37.564;2023-04-27T04:40:49;98884.19;;;22.44;64.04
25084;BME280;13075;55.682;37.564;2023-04-27T04:43:17;98878.41;;;22.50;56.48
25084;BME280;13075;55.682;37.564;2023-04-27T04:45:42;98878.59;;;22.54;59.13
25084;BME280;13075;55.682;37.564;2023-04-27T04:48:08;98870.53;;;22.86;58.17
25084;BME280;13075;55.682;37.564;2023-04-27T04:50:34;98884.69;;;23.98;55.47
25084;BME280;13075;55.682;37.564;2023-04-27T04:53:00;98884.34;;;23.73;53.43
25084;BME280;13075;55.682;37.564;2023-04-27T04:55:25;98886.50;;;23.11;53.64
25084;BME280;13075;55.682;37.564;2023-04-27T04:57:52;98871.78;;;23.26;54.09
25084;BME280;13075;55.682;37.564;2023-04-27T05:02:46;98887.84;;;22.76;52.73
25084;BME280;13075;55.682;37.564;2023-04-27T05:05:11;98889.78;;;22.76;53.30
25084;BME280;13075;55.682;37.564;2023-04-27T05:07:37;98886.09;;;23.36;51.75
25084;BME280;13075;55.682;37.564;2023-04-27T05:10:02;98889.25;;;23.89;50.57
25084;BME280;13075;55.682;37.564;2023-04-27T05:12:28;98892.09;;;24.11;48.63
25084;BME280;13075;55.682;37.564;2023-04-27T05:14:53;98893.50;;;24.86;46.88
25084;BME280;13075;55.682;37.564;2023-04-27T05:17:19;98903.13;;;24.34;46.56
25084;BME280;13075;55.682;37.564;2023-04-27T05:19:44;98896.78;;;24.60;46.51
25084;BME280;13075;55.682;37.564;2023-04-27T05:22:10;98893.94;;;26.29;42.55
25084;BME280;13075;55.682;37.564;2023-04-27T05:24:35;98891.13;;;28.38;40.37
25084;BME280;13075;55.682;37.564;2023-04-27T05:27:01;98888.38;;;31.23;34.72
25084;BME280;13075;55.682;37.564;2023-04-27T05:29:26;98895.69;;;28.64;36.76
25084;BME280;13075;55.682;37.564;2023-04-27T05:31:52;98889.66;;;28.03;37.17
25084;BME280;13075;55.682;37.564;2023-04-27T05:34:20;98889.34;;;27.96;38.01
25084;BME280;13075;55.682;37.564;2023-04-27T05:36:45;98898.72;;;26.80;39.19
25084;BME280;13075;55.682;37.564;2023-04-27T05:39:11;98900.03;;;26.91;38.61
25084;BME280;13075;55.682;37.564;2023-04-27T05:41:38;98902.94;;;27.12;38.23
25084;BME280;13075;55.682;37.564;2023-04-27T05:44:03;98890.38;;;29.21;36.82
25084;BME280;13075;55.682;37.564;2023-04-27T05:46:29;98902.09;;;28.01;36.93
25084;BME280;13075;55.682;37.564;2023-04-27T05:48:54;98892.09;;;28.34;36.60
25084;BME280;13075;55.682;37.564;2023-04-27T05:51:20;98891.59;;;27.56;38.49
25084;BME280;13075;55.682;37.564;2023-04-27T05:53:45;98894.38;;;26.88;39.49
25084;BME280;13075;55.682;37.564;2023-04-27T05:56:11;98890.63;;;27.99;37.39
25084;BME280;13075;55.682;37.564;2023-04-27T05:58:36;98892.16;;;25.94;38.61
25084;BME280;13075;55.682;37.564;2023-04-27T06:01:02;98898.25;;;26.78;37.74
25084;BME280;13075;55.682;37.564;2023-04-27T06:03:28;98892.66;;;26.44;37.71
25084;BME280;13075;55.682;37.564;2023-04-27T06:05:54;98907.75;;;26.16;38.12
25084;BME280;13075;55.682;37.564;2023-04-27T06:08:20;98905.31;;;25.53;37.81
25084;BME280;13075;55.682;37.564;2023-04-27T06:10:45;98909.09;;;25.43;37.85
25084;BME280;13075;55.682;37.564;2023-04-27T06:13:10;98901.69;;;25.44;38.34
25084;BME280;13075;55.682;37.564;2023-04-27T06:15:36;98903.09;;;25.85;38.09
25084;BME280;13075;55.682;37.564;2023-04-27T06:18:01;98904.69;;;25.86;38.31
25084;BME280;13075;55.682;37.564;2023-04-27T06:20:27;98908.66;;;25.72;38.55
25084;BME280;13075;55.682;37.564;2023-04-27T06:22:52;98906.28;;;25.34;38.61
25084;BME280;13075;55.682;37.564;2023-04-27T06:25:18;98910.94;;;26.09;38.60
25084;BME280;13075;55.682;37.564;2023-04-27T06:27:43;98908.97;;;26.10;38.44
25084;BME280;13075;55.682;37.564;2023-04-27T06:30:09;98906.66;;;25.94;37.88
25084;BME280;13075;55.682;37.564;2023-04-27T06:32:35;98911.59;;;25.84;37.99
25084;BME280;13075;55.682;37.564;2023-04-27T06:35:00;98910.75;;;26.45;37.38
25084;BME280;13075;55.682;37.564;2023-04-27T06:37:26;98912.06;;;26.47;37.07
25084;BME280;13075;55.682;37.564;2023-04-27T06:39:51;98921.34;;;26.29;37.31
25084;BME280;13075;55.682;37.564;2023-04-27T06:42:17;98922.31;;;26.25;36.84
25084;BME280;13075;55.682;37.564;2023-04-27T06:44:42;98917.16;;;26.88;36.13
25084;BME280;13075;55.682;37.564;2023-04-27T06:47:07;98923.53;;;26.58;36.40
25084;BME280;13075;55.682;37.564;2023-04-27T06:49:33;98903.59;;;27.43;36.33
25084;BME280;13075;55.682;37.564;2023-04-27T06:52:00;98919.72;;;27.45;36.16
25084;BME280;13075;55.682;37.564;2023-04-27T06:54:26;98925.34;;;27.65;35.65
25084;BME280;13075;55.682;37.564;2023-04-27T06:56:52;98915.13;;;28.88;33.39
25084;BME280;13075;55.682;37.564;2023-04-27T06:59:19;98922.03;;;31.25;31.02
25084;BME280;13075;55.682;37.564;2023-04-27T07:01:44;98909.47;;;33.35;29.03
25084;BME280;13075;55.682;37.564;2023-04-27T07:04:10;98906.25;;;38.25;24.33
25084;BME280;13075;55.682;37.564;2023-04-27T07:06:35;98912.69;;;42.03;20.29
25084;BME280;13075;55.682;37.564;2023-04-27T07:09:01;98902.50;;;43.22;19.53
25084;BME280;13075;55.682;37.564;2023-04-27T07:11:29;98884.53;;;46.05;17.11
25084;BME280;13075;55.682;37.564;2023-04-27T07:13:55;98893.28;;;45.31;17.52
25084;BME280;13075;55.682;37.564;2023-04-27T07:16:20;98899.22;;;46.00;16.45
25084;BME280;13075;55.682;37.564;2023-04-27T07:18:45;98884.66;;;49.45;14.57
25084;BME280;13075;55.682;37.564;2023-04-27T07:21:11;98892.91;;;48.34;14.47
25084;BME280;13075;55.682;37.564;2023-04-27T07:23:37;98888.00;;;48.44;14.27
25084;BME280;13075;55.682;37.564;2023-04-27T07:26:03;98878.50;;;49.88;13.89
25084;BME280;13075;55.682;37.564;2023-04-27T07:28:28;98879.13;;;47.75;13.91
25084;BME280;13075;55.682;37.564;2023-04-27T07:30:53;98879.72;;;51.06;12.89
25084;BME280;13075;55.682;37.564;2023-04-27T07:33:20;98885.66;;;49.15;13.78
25084;BME280;13075;55.682;37.564;2023-04-27T07:35:46;98887.75;;;46.75;14.25
25084;BME280;13075;55.682;37.564;2023-04-27T07:38:12;98888.19;;;49.31;14.01
25084;BME280;13075;55.682;37.564;2023-04-27T07:40:37;98884.19;;;50.21;13.44
25084;BME280;13075;55.682;37.564;2023-04-27T07:43:03;98895.63;;;48.74;13.72
25084;BME280;13075;55.682;37.564;2023-04-27T07:45:29;98894.66;;;49.31;13.63
25084;BME280;13075;55.682;37.564;2023-04-27T07:47:58;98898.94;;;49.09;13.46
25084;BME280;13075;55.682;37.564;2023-04-27T07:50:25;98893.84;;;49.82;13.09
25084;BME280;13075;55.682;37.564;2023-04-27T07:52:51;98895.56;;;49.47;12.89
25084;BME280;13075;55.682;37.564;2023-04-27T07:55:16;98895.63;;;50.83;12.99
25084;BME280;13075;55.682;37.564;2023-04-27T07:57:42;98891.66;;;51.48;12.45
25084;BME280;13075;55.682;37.564;2023-04-27T08:00:07;98897.91;;;49.57;13.29
25084;BME280;13075;55.682;37.564;2023-04-27T08:02:38;98896.75;;;51.88;12.23
25084;BME280;13075;55.682;37.564;2023-04-27T08:05:03;98888.22;;;50.38;12.74
25084;BME280;13075;55.682;37.564;2023-04-27T08:07:28;98882.78;;;48.33;14.64
25084;BME280;13075;55.682;37.564;2023-04-27T08:09:54;98887.22;;;49.34;13.93
25084;BME280;13075;55.682;37.564;2023-04-27T08:12:19;98887.63;;;50.02;13.02
25084;BME280;13075;55.682;37.564;2023-04-27T08:14:45;98889.97;;;52.41;12.12
25084;BME280;13075;55.682;37.564;2023-04-27T08:17:11;98894.06;;;49.69;13.33
25084;BME280;13075;55.682;37.564;2023-04-27T08:19:36;98892.47;;;49.08;14.08
25084;BME280;13075;55.682;37.564;2023-04-27T08:22:02;98894.78;;;43.81;16.54
25084;BME280;13075;55.682;37.564;2023-04-27T08:24:27;98892.94;;;39.97;19.46
25084;BME280;13075;55.682;37.564;2023-04-27T08:26:53;98894.69;;;36.91;21.82
25084;BME280;13075;55.682;37.564;2023-04-27T08:29:18;98906.78;;;36.00;22.49
25084;BME280;13075;55.682;37.564;2023-04-27T08:31:44;98889.41;;;34.81;23.81
25084;BME280;13075;55.682;37.564;2023-04-27T08:34:09;98887.91;;;33.89;24.83
25084;BME280;13075;55.682;37.564;2023-04-27T08:36:35;98885.75;;;33.37;26.29
25084;BME280;13075;55.682;37.564;2023-04-27T08:39:01;98885.56;;;33.68;25.17
25084;BME280;13075;55.682;37.564;2023-04-27T08:41:26;98888.28;;;33.46;26.12
25084;BME280;13075;55.682;37.564;2023-04-27T08:43:51;98898.09;;;32.35;26.84
25084;BME280;13075;55.682;37.564;2023-04-27T08:46:22;98898.56;;;32.06;26.89
25084;BME280;13075;55.682;37.564;2023-04-27T08:48:49;98892.38;;;32.59;27.42
25084;BME280;13075;55.682;37.564;2023-04-27T08:51:15;98895.41;;;33.24;26.79
25084;BME280;13075;55.682;37.564;2023-04-27T08:53:48;98892.66;;;33.28;27.83
25084;BME280;13075;55.682;37.564;2023-04-27T08:56:14;98898.69;;;33.71;27.02
25084;BME280;13075;55.682;37.564;2023-04-27T08:58:40;98903.22;;;33.79;26.33
25084;BME280;13075;55.682;37.564;2023-04-27T09:01:06;98898.03;;;33.55;26.87
25084;BME280;13075;55.682;37.564;2023-04-27T09:03:34;98898.75;;;34.17;26.41
25084;BME280;13075;55.682;37.564;2023-04-27T09:06:03;98903.13;;;33.76;26.54
25084;BME280;13075;55.682;37.564;2023-04-27T09:08:50;98898.03;;;33.01;28.36
25084;BME280;13075;55.682;37.564;2023-04-27T09:11:26;98892.38;;;32.59;29.26
25084;BME280;13075;55.682;37.564;2023-04-27T09:13:52;98895.78;;;32.88;28.34
25084;BME280;13075;55.682;37.564;2023-04-27T09:16:21;98906.53;;;31.36;29.92
25084;BME280;13075;55.682;37.564;2023-04-27T09:18:47;98898.25;;;30.45;30.83
25084;BME280;13075;55.682;37.564;2023-04-27T09:21:20;98899.19;;;31.01;30.50
25084;BME280;13075;55.682;37.564;2023-04-27T09:23:46;98894.81;;;30.88;31.79
25084;BME280;13075;55.682;37.564;2023-04-27T09:26:17;98909.00;;;30.74;29.66
25084;BME280;13075;55.682;37.564;2023-04-27T09:28:46;98905.69;;;30.56;29.82
25084;BME280;13075;55.682;37.564;2023-04-27T09:31:11;98904.69;;;30.61;29.62
25084;BME280;13075;55.682;37.564;2023-04-27T09:33:37;98900.66;;;29.77;30.49
25084;BME280;13075;55.682;37.564;2023-04-27T09:36:03;98895.78;;;29.50;30.60
25084;BME280;13075;55.682;37.564;2023-04-27T09:38:29;98902.63;;;29.32;30.77
25084;BME280;13075;55.682;37.564;2023-04-27T09:40:55;98904.16;;;30.95;29.70
25084;BME280;13075;55.682;37.564;2023-04-27T09:43:21;98902.91;;;29.96;30.71
25084;BME280;13075;55.682;37.564;2023-04-27T09:45:48;98896.72;;;30.11;30.29
25084;BME280;13075;55.682;37.564;2023-04-27T09:48:14;98906.41;;;30.41;30.19
25084;BME280;13075;55.682;37.564;2023-04-27T09:50:40;98909.28;;;30.33;30.59
25084;BME280;13075;55.682;37.564;2023-04-27T09:53:13;98911.63;;;31.07;30.38
25084;BME280;13075;55.682;37.564;2023-04-27T10:00:41;98911.50;;;32.64;28.75
25084;BME280;13075;55.682;37.564;2023-04-27T10:06:05;98910.94;;;30.98;30.32
25084;BME280;13075;55.682;37.564;2023-04-27T10:08:36;98912.44;;;31.35;30.40
25084;BME280;13075;55.682;37.564;2023-04-27T10:11:12;98908.16;;;31.37;30.27
25084;BME280;13075;55.682;37.564;2023-04-27T10:13:37;98915.94;;;30.44;30.16
25084;BME280;13075;55.682;37.564;2023-04-27T10:16:15;98906.13;;;29.98;30.26
25084;BME280;13075;55.682;37.564;2023-04-27T10:18:49;98915.66;;;29.23;30.65
25084;BME280;13075;55.682;37.564;2023-04-27T10:21:15;98904.19;;;29.65;30.72
25084;BME280;13075;55.682;37.564;2023-04-27T10:23:47;98901.41;;;29.53;30.52
25084;BME280;13075;55.682;37.564;2023-04-27T10:26:23;98909.00;;;29.56;30.21
25084;BME280;13075;55.682;37.564;2023-04-27T10:28:55;98913.91;;;29.51;30.85
25084;BME280;13075;55.682;37.564;2023-04-27T10:31:27;98910.41;;;29.62;30.67
25084;BME280;13075;55.682;37.564;2023-04-27T10:34:03;98906.06;;;29.41;31.52
25084;BME280;13075;55.682;37.564;2023-04-27T10:36:33;98905.63;;;28.97;31.78
25084;BME280;13075;55.682;37.564;2023-04-27T10:38:59;98903.13;;;28.55;32.63
25084;BME280;13075;55.682;37.564;2023-04-27T10:41:32;98903.28;;;28.67;32.35
25084;BME280;13075;55.682;37.564;2023-04-27T10:44:12;98903.53;;;28.44;32.77
25084;BME280;13075;55.682;37.564;2023-04-27T10:46:38;98908.50;;;28.22;33.57
25084;BME280;13075;55.682;37.564;2023-04-27T10:49:13;98913.44;;;28.08;32.79
25084;BME280;13075;55.682;37.564;2023-04-27T10:51:40;98903.78;;;28.31;32.61
25084;BME280;13075;55.682;37.564;2023-04-27T10:54:05;98916.94;;;28.17;32.92
25084;BME280;13075;55.682;37.564;2023-04-27T10:56:31;98920.59;;;27.83;33.49
25084;BME280;13075;55.682;37.564;2023-04-27T10:59:00;98944.13;;;27.38;34.37
25084;BME280;13075;55.682;37.564;2023-04-27T11:01:26;98950.97;;;26.67;37.88
25084;BME280;13075;55.682;37.564;2023-04-27T11:03:54;98962.94;;;26.23;41.80
25084;BME280;13075;55.682;37.564;2023-04-27T11:06:19;98971.00;;;25.66;47.83
25084;BME280;13075;55.682;37.564;2023-04-27T11:08:45;98968.41;;;25.25;52.50
25084;BME280;13075;55.682;37.564;2023-04-27T11:11:13;98975.66;;;25.44;55.88
25084;BME280;13075;55.682;37.564;2023-04-27T11:13:38;98960.66;;;25.19;52.53
25084;BME280;13075;55.682;37.564;2023-04-27T11:16:04;98954.69;;;25.83;52.22
25084;BME280;13075;55.682;37.564;2023-04-27T11:18:31;98952.50;;;26.90;51.25
25084;BME280;13075;55.682;37.564;2023-04-27T11:21:07;98959.47;;;26.96;45.61
25084;BME280;13075;55.682;37.564;2023-04-27T11:23:33;98954.72;;;26.71;42.80
25084;BME280;13075;55.682;37.564;2023-04-27T11:26:09;98953.47;;;27.62;43.05
25084;BME280;13075;55.682;37.564;2023-04-27T11:28:34;98951.72;;;27.32;43.15
25084;BME280;13075;55.682;37.564;2023-04-27T11:31:00;98953.13;;;27.90;40.17
25084;BME280;13075;55.682;37.564;2023-04-27T11:33:26;98947.03;;;27.58;39.09
25084;BME280;13075;55.682;37.564;2023-04-27T11:35:51;98950.09;;;27.65;38.56
25084;BME280;13075;55.682;37.564;2023-04-27T11:38:19;98949.38;;;28.03;38.50
25084;BME280;13075;55.682;37.564;2023-04-27T11:40:46;98946.88;;;27.12;38.69
25084;BME280;13075;55.682;37.564;2023-04-27T11:43:14;98953.81;;;27.01;39.35
25084;BME280;13075;55.682;37.564;2023-04-27T11:45:43;98949.94;;;27.02;38.71
25084;BME280;13075;55.682;37.564;2023-04-27T11:48:14;98947.75;;;26.65;38.91
25084;BME280;13075;55.682;37.564;2023-04-27T11:50:42;98946.59;;;26.57;39.76
25084;BME280;13075;55.682;37.564;2023-04-27T11:53:10;98941.09;;;26.48;39.34
25084;BME280;13075;55.682;37.564;2023-04-27T11:55:37;98940.66;;;26.16;39.13
25084;BME280;13075;55.682;37.564;2023-04-27T11:58:05;98933.59;;;26.80;39.01
25084;BME280;13075;55.682;37.564;2023-04-27T12:00:31;98936.97;;;26.77;38.77
25084;BME280;13075;55.682;37.564;2023-04-27T12:02:57;98946.00;;;26.21;39.70
25084;BME280;13075;55.682;37.564;2023-04-27T12:05:22;98937.44;;;26.22;40.04
25084;BME280;13075;55.682;37.564;2023-04-27T12:07:48;98923.00;;;26.39;39.58
25084;BME280;13075;55.682;37.564;2023-04-27T12:10:13;98937.38;;;26.44;40.02
25084;BME280;13075;55.682;37.564;2023-04-27T12:12:39;98935.91;;;26.08;40.12
25084;BME280;13075;55.682;37.564;2023-04-27T12:15:05;98925.44;;;26.10;40.69
25084;BME280;13075;55.682;37.564;2023-04-27T12:17:31;98937.81;;;25.98;40.09
25084;BME280;13075;55.682;37.564;2023-04-27T12:19:57;98930.38;;;26.21;39.85
25084;BME280;13075;55.682;37.564;2023-04-27T12:22:22;98926.25;;;26.10;39.08
25084;BME280;13075;55.682;37.564;2023-04-27T12:24:47;98930.22;;;26.26;39.60
25084;BME280;13075;55.682;37.564;2023-04-27T12:27:13;98921.75;;;26.62;39.98
25084;BME280;13075;55.682;37.564;2023-04-27T12:29:38;98924.66;;;26.74;38.53
25084;BME280;13075;55.682;37.564;2023-04-27T12:32:04;98925.22;;;27.19;38.42
25084;BME280;13075;55.682;37.564;2023-04-27T12:34:30;98927.00;;;26.98;39.08
25084;BME280;13075;55.682;37.564;2023-04-27T12:36:56;98907.69;;;26.46;38.80
25084;BME280;13075;55.682;37.564;2023-04-27T12:39:22;98909.56;;;27.11;38.13
25084;BME280;13075;55.682;37.564;2023-04-27T12:41:51;98915.03;;;27.02;39.06
25084;BME280;13075;55.682;37.564;2023-04-27T12:44:17;98904.88;;;27.11;37.91
25084;BME280;13075;55.682;37.564;2023-04-27T12:46:43;98906.13;;;26.71;36.80
25084;BME280;13075;55.682;37.564;2023-04-27T12:49:09;98905.34;;;27.05;37.63
25084;BME280;13075;55.682;37.564;2023-04-27T12:51:35;98900.00;;;27.00;36.28
25084;BME280;13075;55.682;37.564;2023-04-27T12:54:04;98906.81;;;26.94;36.41
25084;BME280;13075;55.682;37.564;2023-04-27T12:56:30;98900.66;;;26.80;36.14